Latest Weather Observations for Lord Howe Island Windy Point

IDN60801

Issued at 3:05 am EDT Thursday 27 November 2014 (issued every 30 minutes, with the page automatically refreshed every 10 minutes)

About weather observations | Map of weather stations | Latest weather observations for NSW | Other Formats
Station Details ID: 200715 Name: LORD HOWE ISLAND WINDY POINT Lat: -31.54 Lon: 159.07 Height: 4.0 m
Data from the previous 72 hours. | See also: Recent months for locations in New South Wales
Date/Time
EDT
Temp
°C
App
Temp
°C
Dew
Point
Rel
Hum
%
Delta-T
°C
Wind Press
QNH
hPa
Press
MSL
hPa
Rain
since 9 am
mm
Dir
 
Spd
km/h
Gust
km/h
Spd
kts
Gust
kts
27/03:00am - - - - - E 17 20 9 11 - - -
27/02:30am - - - - - E 15 19 8 10 - - -
27/02:00am - - - - - E 17 20 9 11 - - -
27/01:30am - - - - - E 15 17 8 9 - - -
27/01:00am - - - - - E 19 22 10 12 - - -
27/12:30am - - - - - ESE 15 20 8 11 - - -
27/12:00am - - - - - ESE 11 20 6 11 - - -
 
Date/Time
EDT
Temp
°C
App
Temp
°C
Dew
Point
Rel
Hum
%
Delta-T
°C
Wind Press
QNH
hPa
Press
MSL
hPa
Rain
since 9 am
mm
Dir
 
Spd
km/h
Gust
km/h
Spd
kts
Gust
kts
26/11:30pm - - - - - SE 9 17 5 9 - - -
26/11:00pm - - - - - ESE 20 26 11 14 - - -
26/10:30pm - - - - - E 19 24 10 13 - - -
26/10:00pm - - - - - E 20 26 11 14 - - -
26/09:30pm - - - - - E 20 26 11 14 - - -
26/09:00pm - - - - - E 26 28 14 15 - - -
26/08:30pm - - - - - SE 7 13 4 7 - - -
26/08:00pm - - - - - E 17 20 9 11 - - -
26/07:30pm - - - - - E 22 28 12 15 - - -
26/07:00pm - - - - - E 22 30 12 16 - - -
26/06:30pm - - - - - ESE 15 20 8 11 - - -
26/06:00pm - - - - - E 19 22 10 12 - - -
26/05:30pm - - - - - E 20 24 11 13 - - -
26/05:00pm - - - - - E 19 22 10 12 - - -
26/04:30pm - - - - - E 19 22 10 12 - - -
26/04:00pm - - - - - E 22 26 12 14 - - -
26/03:30pm - - - - - E 20 24 11 13 - - -
26/03:00pm - - - - - E 20 24 11 13 - - -
26/02:30pm - - - - - E 20 24 11 13 - - -
26/02:00pm - - - - - E 19 22 10 12 - - -
26/01:30pm - - - - - E 17 20 9 11 - - -
26/01:00pm - - - - - E 22 26 12 14 - - -
26/12:30pm - - - - - E 22 26 12 14 - - -
26/12:00pm - - - - - E 20 26 11 14 - - -
26/11:30am - - - - - ENE 17 22 9 12 - - -
26/11:00am - - - - - E 28 33 15 18 - - -
26/10:30am - - - - - ESE 30 41 16 22 - - -
26/10:00am - - - - - ESE 28 37 15 20 - - -
26/09:30am - - - - - ESE 32 41 17 22 - - -
26/09:00am - - - - - ESE 35 46 19 25 - - -
26/08:42am - - - - - ESE 30 50 16 27 - - -
26/08:30am - - - - - ESE 28 41 15 22 - - -
26/08:00am - - - - - ESE 24 39 13 21 - - -
26/07:53am - - - - - ESE 32 50 17 27 - - -
26/07:30am - - - - - ESE 41 54 22 29 - - -
26/07:11am - - - - - ESE 32 50 17 27 - - -
26/07:00am - - - - - ESE 32 46 17 25 - - -
26/06:30am - - - - - ESE 37 48 20 26 - - -
26/06:00am - - - - - ESE 41 52 22 28 - - -
26/05:30am - - - - - ESE 32 48 17 26 - - -
26/05:01am - - - - - ESE 28 46 15 25 - - -
26/05:00am - - - - - ESE 26 41 14 22 - - -
26/04:56am - - - - - ESE 32 50 17 27 - - -
26/04:30am - - - - - ESE 39 54 21 29 - - -
26/04:06am - - - - - ESE 32 52 17 28 - - -
26/04:00am - - - - - ESE 28 44 15 24 - - -
26/03:30am - - - - - ESE 24 35 13 19 - - -
26/03:00am - - - - - ESE 20 30 11 16 - - -
26/02:30am - - - - - ESE 13 24 7 13 - - -
26/02:00am - - - - - ESE 17 26 9 14 - - -
26/01:30am - - - - - E 15 19 8 10 - - -
26/01:00am - - - - - NE 6 9 3 5 - - -
26/12:30am - - - - - NNW 17 24 9 13 - - -
26/12:00am - - - - - NNW 19 26 10 14 - - -
 
Date/Time
EDT
Temp
°C
App
Temp
°C
Dew
Point
Rel
Hum
%
Delta-T
°C
Wind Press
QNH
hPa
Press
MSL
hPa
Rain
since 9 am
mm
Dir
 
Spd
km/h
Gust
km/h
Spd
kts
Gust
kts
25/11:30pm - - - - - NNW 19 26 10 14 - - -
25/11:00pm - - - - - NNW 20 26 11 14 - - -
25/10:30pm - - - - - NNW 19 24 10 13 - - -
25/10:00pm - - - - - NNW 17 20 9 11 - - -
25/09:30pm - - - - - NNW 17 24 9 13 - - -
25/09:00pm - - - - - NW 13 17 7 9 - - -
25/08:30pm - - - - - NW 17 20 9 11 - - -
25/08:00pm - - - - - NW 15 19 8 10 - - -
25/07:30pm - - - - - NW 17 20 9 11 - - -
25/07:00pm - - - - - WNW 15 20 8 11 - - -
25/06:30pm - - - - - WNW 17 26 9 14 - - -
25/06:00pm - - - - - WNW 24 28 13 15 - - -
25/05:30pm - - - - - WNW 26 32 14 17 - - -
25/05:00pm - - - - - WNW 26 33 14 18 - - -
25/04:30pm - - - - - WNW 24 32 13 17 - - -
25/04:00pm - - - - - WNW 24 32 13 17 - - -
25/03:30pm - - - - - NW 26 35 14 19 - - -
25/03:00pm - - - - - NW 32 39 17 21 - - -
25/02:30pm - - - - - NW 30 37 16 20 - - -
25/02:00pm - - - - - NW 32 39 17 21 - - -
25/01:30pm - - - - - NW 32 39 17 21 - - -
25/01:00pm - - - - - NW 35 44 19 24 - - -
25/12:30pm - - - - - NW 35 44 19 24 - - -
25/12:00pm - - - - - NW 35 44 19 24 - - -
25/11:30am - - - - - NW 35 43 19 23 - - -
25/11:00am - - - - - NW 35 46 19 25 - - -
25/10:30am - - - - - NW 35 48 19 26 - - -
25/10:00am - - - - - NW 35 48 19 26 - - -
25/09:30am - - - - - NW 30 50 16 27 - - -
25/09:08am - - - - - NNW 30 48 16 26 - - -
25/09:00am - - - - - NW 33 48 18 26 - - -
25/08:30am - - - - - NW 33 56 18 30 - - -
25/08:10am - - - - - NNW 28 46 15 25 - - -
25/08:00am - - - - - NW 30 46 16 25 - - -
25/07:42am - - - - - NNW 28 50 15 27 - - -
25/07:30am - - - - - NNW 22 37 12 20 - - -
25/07:00am - - - - - NW 28 56 15 30 - - -
25/06:33am - - - - - NW 28 46 15 25 - - -
25/06:30am - - - - - NW 30 46 16 25 - - -
25/06:00am - - - - - NNW 30 50 16 27 - - -
25/05:44am - - - - - NW 28 50 15 27 - - -
25/05:30am - - - - - NNW 30 46 16 25 - - -
25/05:24am - - - - - NNW 28 46 15 25 - - -
25/05:00am - - - - - NW 28 43 15 23 - - -
25/04:50am - - - - - NW 30 50 16 27 - - -
25/04:30am - - - - - NW 22 41 12 22 - - -
25/04:00am - - - - - NW 19 32 10 17 - - -
25/03:30am - - - - - NW 20 35 11 19 - - -
25/03:00am - - - - - WNW 13 26 7 14 - - -
25/02:30am - - - - - NW 13 26 7 14 - - -
25/02:00am - - - - - WNW 15 26 8 14 - - -
25/01:30am - - - - - NW 13 24 7 13 - - -
25/01:00am - - - - - NW 11 20 6 11 - - -
25/12:30am - - - - - NNE 13 24 7 13 - - -
25/12:00am - - - - - NE 13 26 7 14 - - -
 
Date/Time
EDT
Temp
°C
App
Temp
°C
Dew
Point
Rel
Hum
%
Delta-T
°C
Wind Press
QNH
hPa
Press
MSL
hPa
Rain
since 9 am
mm
Dir
 
Spd
km/h
Gust
km/h
Spd
kts
Gust
kts
24/11:30pm - - - - - NNE 17 30 9 16 - - -
24/11:00pm - - - - - NNE 15 28 8 15 - - -
24/10:30pm - - - - - NE 13 24 7 13 - - -
24/10:00pm - - - - - NE 13 24 7 13 - - -
24/09:30pm - - - - - NE 11 22 6 12 - - -
24/09:00pm - - - - - NE 11 24 6 13 - - -
24/08:30pm - - - - - NNE 13 26 7 14 - - -
24/08:00pm - - - - - NNE 9 20 5 11 - - -
24/07:30pm - - - - - NE 11 20 6 11 - - -
24/07:00pm - - - - - NNE 15 20 8 11 - - -
24/06:30pm - - - - - ENE 9 20 5 11 - - -
24/06:00pm - - - - - N 9 24 5 13 - - -
24/05:30pm - - - - - NE 11 28 6 15 - - -
24/05:00pm - - - - - NNE 11 24 6 13 - - -
24/04:30pm - - - - - W 7 19 4 10 - - -
24/04:00pm - - - - - NNW 11 26 6 14 - - -
24/03:30pm - - - - - N 11 20 6 11 - - -
24/03:00pm - - - - - NW 19 26 10 14 - - -
24/02:30pm - - - - - NW 20 30 11 16 - - -
24/02:00pm - - - - - NW 20 37 11 20 - - -
24/01:30pm - - - - - NW 20 35 11 19 - - -
24/01:00pm - - - - - NW 20 35 11 19 - - -
24/12:30pm - - - - - NW 24 39 13 21 - - -
24/12:00pm - - - - - NW 22 30 12 16 - - -
24/11:30am - - - - - NW 20 32 11 17 - - -
24/11:00am - - - - - NNW 20 33 11 18 - - -
24/10:30am - - - - - NW 20 32 11 17 - - -
24/10:00am - - - - - NNW 19 26 10 14 - - -
24/09:30am - - - - - NW 19 39 10 21 - - -
24/09:00am - - - - - NNW 19 33 10 18 - - -
24/08:30am - - - - - NW 17 30 9 16 - - -
24/08:00am - - - - - NW 22 33 12 18 - - -
24/07:30am - - - - - NW 24 33 13 18 - - -
24/07:00am - - - - - NNW 15 26 8 14 - - -
24/06:30am - - - - - NW 19 35 10 19 - - -
24/06:00am - - - - - NW 22 30 12 16 - - -
24/05:30am - - - - - NW 13 22 7 12 - - -
24/05:00am - - - - - NW 9 24 5 13 - - -
24/04:30am - - - - - NW 13 20 7 11 - - -
24/04:00am - - - - - NW 11 20 6 11 - - -
24/03:30am - - - - - W 9 17 5 9 - - -

Other Formats:

Comma delimited format used in spreadsheet applications
http://www.bom.gov.au/fwo/IDN60801/IDN60801.95995.axf

JavaScript Object Notation format (JSON) in row-major order
http://www.bom.gov.au/fwo/IDN60801/IDN60801.95995.json